»·PEaware :: SWA210 KSLC-KBUR

SWA210 :: KSLC-KBUR

FLIGHT INFORMATION

Flight Status: Arrived
Operator:
Southwest Airlines
More flights by this operator :: More flights under this callsign
Pilot: Anonymous 16446 (16446)
Aircraft: BOEING 737-200
(B732)
More flights by this aircraft type
Origin: KSLC Salt Lake City Intl
United States
Destination: KBUR Bob Hope-Burbank
United States
More flights between these airports :: More routes between these airports
Route: +SEVYR3 MLF BLD DAG LYNXX8
File this flight plan on PilotEdge
Remarks:
Altitude:
(Current/Filed)
29,000ft
Speed:
(Current/Filed)
450kts
Departed: 20-Jan-18 04:34 PM
Arrived: 20-Jan-18 06:15 PM
Distance/Time
Traveled:
498nm/1:41
Distance/Time
To Go:
Arrived

Flight Plot

Page will automatically refresh every two minutes.

Flight plan parsing failed; only flown route is shown


Map Options




Map Legend


Flown Route
Filed Route
Departure Airport
Arrival Airport
Navaid (VOR, NDB)
Fix

Horizontal Profiles

Position Reports

Time Latitude Longitude Heading Altitude Ground
Speed
20-Jan-18 15:39 40.788539 -111.984388 250 4205ft 0kts
20-Jan-18 15:40 40.788539 -111.984388 250 4205ft 0kts
20-Jan-18 15:41 40.788539 -111.984388 250 4205ft 0kts
20-Jan-18 15:42 40.788539 -111.984388 250 4205ft 0kts
20-Jan-18 15:43 40.788539 -111.984388 250 4205ft 0kts
20-Jan-18 15:44 40.788539 -111.984388 250 4205ft 0kts
20-Jan-18 15:45 40.788539 -111.984388 250 4205ft 0kts
20-Jan-18 15:46 40.788539 -111.984388 250 4205ft 0kts
20-Jan-18 15:47 40.788539 -111.984388 250 4205ft 0kts
20-Jan-18 15:48 40.788539 -111.984388 250 4205ft 0kts
20-Jan-18 15:49 40.788539 -111.984388 250 4205ft 0kts
20-Jan-18 15:50 40.788539 -111.984388 250 4205ft 0kts
20-Jan-18 15:51 40.788539 -111.984388 250 4205ft 0kts
20-Jan-18 15:52 40.788539 -111.984388 250 4205ft 0kts
20-Jan-18 15:53 40.788539 -111.984388 250 4205ft 0kts
20-Jan-18 15:54 40.788539 -111.984388 250 4205ft 0kts
20-Jan-18 15:55 40.788539 -111.984388 250 4205ft 0kts
20-Jan-18 15:56 40.788539 -111.984388 250 4205ft 0kts
20-Jan-18 15:57 40.788539 -111.984388 250 4205ft 0kts
20-Jan-18 15:58 40.788539 -111.984388 250 4205ft 0kts
20-Jan-18 15:59 40.788539 -111.984388 250 4205ft 0kts
20-Jan-18 16:00 40.788539 -111.984388 250 4205ft 0kts
20-Jan-18 16:01 40.788539 -111.984388 250 4205ft 0kts
20-Jan-18 16:02 40.788539 -111.984388 250 4205ft 0kts
20-Jan-18 16:03 40.788539 -111.984388 250 4205ft 0kts
20-Jan-18 16:04 40.788539 -111.984388 250 4205ft 0kts
20-Jan-18 16:05 40.788539 -111.984388 250 4205ft 0kts
20-Jan-18 16:06 40.788539 -111.984388 250 4205ft 0kts
20-Jan-18 16:07 40.788539 -111.984388 250 4205ft 0kts
20-Jan-18 16:08 40.788539 -111.984388 250 4205ft 0kts
20-Jan-18 16:09 40.788539 -111.984388 250 4205ft 0kts
20-Jan-18 16:10 40.788539 -111.984388 250 4205ft 0kts
20-Jan-18 16:11 40.788539 -111.984388 250 4205ft 0kts
20-Jan-18 16:12 40.788539 -111.984388 250 4205ft 0kts
20-Jan-18 16:13 40.788539 -111.984388 250 4205ft 0kts
20-Jan-18 16:14 40.788539 -111.984388 250 4205ft 0kts
20-Jan-18 16:15 40.788539 -111.984388 250 4205ft 0kts
20-Jan-18 16:16 40.788539 -111.984388 250 4205ft 0kts
20-Jan-18 16:17 40.788539 -111.984388 250 4205ft 0kts
20-Jan-18 16:18 40.788539 -111.984388 250 4205ft 0kts
20-Jan-18 16:19 40.788539 -111.984388 250 4205ft 0kts
20-Jan-18 16:20 40.788539 -111.984388 250 4205ft 0kts
20-Jan-18 16:21 40.788539 -111.984388 250 4205ft 0kts
20-Jan-18 16:22 40.788539 -111.984388 250 4205ft 0kts
20-Jan-18 16:23 40.788539 -111.984388 250 4205ft 0kts
20-Jan-18 16:24 40.788539 -111.984388 250 4205ft 0kts
20-Jan-18 16:25 40.788572 -111.984257 254 4205ft 2kts
20-Jan-18 16:26 40.788309 -111.983706 347 4205ft 0kts
20-Jan-18 16:27 40.788309 -111.983706 347 4205ft 0kts
20-Jan-18 16:28 40.788309 -111.983706 347 4205ft 0kts
20-Jan-18 16:29 40.789486 -111.982644 65 4205ft 15kts
20-Jan-18 16:30 40.790067 -111.979202 82 4205ft 0kts
20-Jan-18 16:31 40.790067 -111.979202 82 4205ft 0kts
20-Jan-18 16:32 40.790132 -111.978273 88 4205ft 15kts
20-Jan-18 16:33 40.785827 -111.976644 174 4205ft 13kts
20-Jan-18 16:34 40.782509 -111.976230 176 4205ft 11kts
20-Jan-18 16:35 40.779239 -111.975826 175 4205ft 14kts
20-Jan-18 16:36 40.774507 -111.974691 113 4205ft 6kts
20-Jan-18 16:37 40.774485 -111.974600 102 4205ft 0kts
20-Jan-18 16:38 40.774485 -111.974600 102 4205ft 0kts
20-Jan-18 16:39 40.774479 -111.974193 77 4205ft 12kts
20-Jan-18 16:40 40.796469 -111.975641 353 4286ft 169kts
20-Jan-18 16:41 40.827372 -112.016954 275 6096ft 224kts
20-Jan-18 16:42 40.829642 -112.113590 274 8037ft 277kts
20-Jan-18 16:43 40.831865 -112.219926 271 9943ft 326kts
20-Jan-18 16:44 40.767398 -112.302116 184 12036ft 366kts
20-Jan-18 16:45 40.663644 -112.303948 181 14192ft 382kts
20-Jan-18 16:46 40.555635 -112.303069 181 16159ft 394kts
20-Jan-18 16:47 40.445029 -112.299835 181 17929ft 403kts
20-Jan-18 16:48 40.332694 -112.299692 200 19480ft 402kts
20-Jan-18 16:49 40.232150 -112.359066 210 21001ft 399kts
20-Jan-18 16:50 40.131251 -112.420189 210 22327ft 402kts
20-Jan-18 16:51 40.029581 -112.481372 209 23495ft 404kts
20-Jan-18 16:52 39.925310 -112.536477 203 24513ft 410kts
20-Jan-18 16:53 39.816317 -112.574783 199 25376ft 414kts
20-Jan-18 16:54 39.707768 -112.608813 199 26700ft 401kts
20-Jan-18 16:55 39.598921 -112.642203 199 27420ft 402kts
20-Jan-18 16:56 39.490318 -112.675385 198 28004ft 406kts
20-Jan-18 16:57 39.378121 -112.709454 197 27974ft 421kts
20-Jan-18 16:58 39.262768 -112.744371 197 27967ft 433kts
20-Jan-18 16:59 39.144820 -112.779963 197 27970ft 441kts
20-Jan-18 17:00 39.024715 -112.816123 197 27968ft 444kts
20-Jan-18 17:01 38.905201 -112.851924 196 27965ft 442kts
20-Jan-18 17:02 38.787864 -112.886599 196 27969ft 440kts
20-Jan-18 17:03 38.669301 -112.921879 196 27966ft 438kts
20-Jan-18 17:04 38.551371 -112.956888 196 27966ft 436kts
20-Jan-18 17:05 38.433525 -112.991714 197 27966ft 435kts
20-Jan-18 17:06 38.318836 -113.034811 215 27984ft 425kts
20-Jan-18 17:07 38.212793 -113.102606 211 27970ft 429kts
20-Jan-18 17:08 38.110521 -113.179232 215 27949ft 429kts
20-Jan-18 17:09 38.010125 -113.260660 216 27924ft 430kts
20-Jan-18 17:10 37.909647 -113.343021 216 27919ft 430kts
20-Jan-18 17:11 37.812372 -113.421314 216 27958ft 430kts
20-Jan-18 17:12 37.712040 -113.502902 216 27955ft 431kts
20-Jan-18 17:13 37.611396 -113.584820 216 27955ft 431kts
20-Jan-18 17:14 37.511323 -113.665977 215 27960ft 431kts
20-Jan-18 17:15 37.410972 -113.746984 215 27960ft 432kts
20-Jan-18 17:16 37.309728 -113.828572 215 27959ft 432kts
20-Jan-18 17:17 37.208888 -113.909612 215 27958ft 431kts
20-Jan-18 17:18 37.108284 -113.990241 215 27958ft 430kts
20-Jan-18 17:19 37.007843 -114.070435 215 27958ft 429kts
20-Jan-18 17:20 36.907583 -114.150256 215 27955ft 427kts
20-Jan-18 17:21 36.810513 -114.226409 215 27957ft 426kts
20-Jan-18 17:22 36.708499 -114.300665 199 27950ft 432kts
20-Jan-18 17:23 36.587424 -114.298855 181 27976ft 440kts
20-Jan-18 17:24 36.465758 -114.289584 181 28006ft 435kts
20-Jan-18 17:25 36.347696 -114.294432 205 28010ft 415kts
20-Jan-18 17:26 36.271472 -114.391845 236 28009ft 398kts
20-Jan-18 17:27 36.207200 -114.502739 236 28008ft 396kts
20-Jan-18 17:28 36.143220 -114.612708 236 28007ft 393kts
20-Jan-18 17:29 36.080473 -114.720344 235 28013ft 392kts
20-Jan-18 17:30 36.016584 -114.829330 235 28011ft 392kts
20-Jan-18 17:31 35.947356 -114.926884 231 28015ft 392kts
20-Jan-18 17:32 35.877145 -115.025524 231 28009ft 393kts
20-Jan-18 17:33 35.804025 -115.125198 232 28003ft 394kts
20-Jan-18 17:34 35.730103 -115.225830 232 28002ft 397kts
20-Jan-18 17:35 35.658512 -115.328607 245 28022ft 391kts
20-Jan-18 17:36 35.601743 -115.443327 241 28001ft 396kts
20-Jan-18 17:37 35.540381 -115.556090 240 28000ft 398kts
20-Jan-18 17:38 35.484066 -115.657479 239 28000ft 400kts
20-Jan-18 17:39 35.423309 -115.766171 239 28016ft 402kts
20-Jan-18 17:40 35.360270 -115.878469 239 28028ft 398kts
20-Jan-18 17:41 35.297889 -115.989223 239 27461ft 395kts
20-Jan-18 17:42 35.235906 -116.098948 240 26684ft 391kts
20-Jan-18 17:43 35.174567 -116.207282 240 25775ft 387kts
20-Jan-18 17:44 35.113626 -116.314577 240 24804ft 382kts
20-Jan-18 17:45 35.063256 -116.403000 240 24060ft 378kts
20-Jan-18 17:46 34.995356 -116.521823 240 24040ft 357kts
20-Jan-18 17:47 34.954643 -116.626777 247 24052ft 339kts
20-Jan-18 17:48 34.923885 -116.696546 246 23672ft 344kts
20-Jan-18 17:49 34.903194 -116.810516 261 21201ft 348kts
20-Jan-18 17:50 34.892760 -116.863178 259 19845ft 352kts
20-Jan-18 17:51 34.870086 -116.964253 258 18480ft 342kts
20-Jan-18 17:52 34.839969 -117.092351 259 16515ft 336kts
20-Jan-18 17:53 34.818436 -117.182716 259 15204ft 331kts
20-Jan-18 17:54 34.792909 -117.289173 259 13978ft 327kts
20-Jan-18 17:55 34.767655 -117.393812 259 13983ft 332kts
20-Jan-18 17:56 34.741427 -117.501949 259 13981ft 336kts
20-Jan-18 17:57 34.714867 -117.610966 259 13983ft 339kts
20-Jan-18 17:58 34.692991 -117.699308 258 13978ft 341kts
20-Jan-18 17:59 34.665592 -117.809813 258 13968ft 343kts
20-Jan-18 18:00 34.644606 -117.921722 268 13970ft 339kts
20-Jan-18 18:01 34.634147 -118.033740 268 13878ft 319kts
20-Jan-18 18:02 34.614408 -118.137008 260 12095ft 318kts
20-Jan-18 18:03 34.591890 -118.241760 260 10054ft 305kts
20-Jan-18 18:04 34.571953 -118.332057 260 8809ft 263kts
20-Jan-18 18:05 34.552968 -118.417809 260 7992ft 267kts
20-Jan-18 18:06 34.513744 -118.493397 222 7940ft 285kts
20-Jan-18 18:07 34.451257 -118.552503 222 6983ft 285kts
20-Jan-18 18:08 34.389673 -118.611459 222 6229ft 283kts
20-Jan-18 18:09 34.333367 -118.657768 191 5956ft 281kts
20-Jan-18 18:10 34.258490 -118.647082 171 5419ft 280kts
20-Jan-18 18:11 34.192142 -118.634513 168 4915ft 276kts
20-Jan-18 18:12 34.157779 -118.566346 90 4329ft 259kts
20-Jan-18 18:13 34.150844 -118.481733 91 3991ft 241kts
20-Jan-18 18:14 34.144381 -118.406427 91 4068ft 222kts
20-Jan-18 18:15 34.139261 -118.347654 92 4051ft 186kts
20-Jan-18 18:16 34.134859 -118.304166 88 3847ft 156kts
20-Jan-18 18:17 34.158219 -118.270599 9 2746ft 143kts
20-Jan-18 18:18 34.188657 -118.288090 312 1927ft 135kts
20-Jan-18 18:19 34.197109 -118.326654 276 1318ft 137kts
20-Jan-18 18:20 34.197841 -118.362292 269 785ft 44kts
20-Jan-18 18:21 34.196930 -118.364494 112 785ft 10kts
20-Jan-18 18:22 34.197211 -118.355502 89 785ft 19kts
20-Jan-18 18:23 34.197069 -118.351968 164 785ft 0kts
20-Jan-18 18:24 34.196796 -118.351976 179 785ft 0kts
20-Jan-18 18:25 34.196794 -118.351976 180 785ft 0kts
20-Jan-18 18:26 34.196794 -118.351976 180 785ft 0kts
20-Jan-18 18:27 34.196794 -118.351976 180 785ft 0kts
20-Jan-18 18:28 34.196794 -118.351976 180 785ft 0kts
20-Jan-18 18:29 34.196794 -118.351976 180 785ft 0kts
20-Jan-18 18:30 34.196794 -118.351976 180 785ft 0kts
20-Jan-18 18:31 34.196794 -118.351976 180 785ft 0kts
20-Jan-18 18:32 34.196794 -118.351976 180 785ft 0kts
20-Jan-18 18:33 34.196794 -118.351976 180 785ft 0kts
20-Jan-18 18:34 34.196794 -118.351976 180 785ft 0kts

Navigation Log

Ident Type
Flight plan parsing failed, navigation log unavailable